createdAt,value
2016-12-25T00:00:17.597Z,4.5
2016-12-25T00:01:21.043Z,4.5
2016-12-25T00:02:23.988Z,4.5
2016-12-25T00:03:27.431Z,4.5
2016-12-25T00:04:30.877Z,4.6
2016-12-25T00:05:33.819Z,4.5
2016-12-25T00:06:37.257Z,4.6
2016-12-25T00:07:40.199Z,4.5
2016-12-25T00:08:43.640Z,4.5
2016-12-25T00:09:46.579Z,4.5
2016-12-25T00:10:50.024Z,4.5
2016-12-25T00:11:53.469Z,4.5
2016-12-25T00:12:56.412Z,4.6
2016-12-25T00:13:59.853Z,4.5
2016-12-25T00:15:02.801Z,4.5
2016-12-25T00:16:06.250Z,4.6
2016-12-25T00:17:09.701Z,4.6
2016-12-25T00:19:16.060Z,4.6
2016-12-25T00:20:19.004Z,4.6
2016-12-25T00:21:22.679Z,4.6
2016-12-25T00:22:25.621Z,4.6
2016-12-25T00:23:29.058Z,4.6
2016-12-25T00:24:32.047Z,4.6
2016-12-25T00:25:35.185Z,4.6
2016-12-25T00:26:38.636Z,4.6
2016-12-25T00:27:42.077Z,4.6
2016-12-25T00:28:45.054Z,4.6
2016-12-25T00:29:48.512Z,4.6
2016-12-25T00:30:51.593Z,4.6
2016-12-25T00:31:55.044Z,4.6
2016-12-25T00:32:57.988Z,4.6
2016-12-25T00:35:04.349Z,4.6
2016-12-25T00:36:07.800Z,4.6
2016-12-25T00:37:11.250Z,4.6
2016-12-25T00:38:14.190Z,4.6
2016-12-25T00:39:17.638Z,4.6
2016-12-25T00:40:20.583Z,4.6
2016-12-25T00:41:24.030Z,4.6
2016-12-25T00:42:27.475Z,4.6
2016-12-25T00:43:30.414Z,4.6
2016-12-25T00:44:33.862Z,4.6
2016-12-25T00:45:36.807Z,4.6
2016-12-25T00:46:40.252Z,4.6
2016-12-25T00:47:43.699Z,4.6
2016-12-25T00:48:46.642Z,4.7
2016-12-25T00:49:50.090Z,4.7
2016-12-25T00:50:53.031Z,4.6
2016-12-25T00:51:56.471Z,4.6
2016-12-25T00:52:59.920Z,4.6
2016-12-25T00:54:02.862Z,4.6
2016-12-25T00:55:06.300Z,4.6
2016-12-25T00:56:09.242Z,4.6
2016-12-25T00:57:12.683Z,4.6
2016-12-25T00:58:16.126Z,4.6
2016-12-25T00:59:19.061Z,4.6
2016-12-25T01:00:22.513Z,4.6
2016-12-25T01:01:25.457Z,4.7
2016-12-25T01:02:28.903Z,4.7
2016-12-25T01:03:32.345Z,4.6
2016-12-25T01:04:35.288Z,4.6
2016-12-25T01:05:38.736Z,4.6
2016-12-25T01:06:41.674Z,4.6
2016-12-25T01:07:45.122Z,4.6
2016-12-25T01:08:48.571Z,4.6
2016-12-25T01:09:51.547Z,4.6
2016-12-25T01:11:57.903Z,4.6
2016-12-25T01:13:01.355Z,4.7
2016-12-25T01:14:04.802Z,4.7
2016-12-25T01:15:07.743Z,4.7
2016-12-25T01:16:11.183Z,4.7
2016-12-25T01:17:14.157Z,4.7
2016-12-25T01:19:21.021Z,4.7
2016-12-25T01:20:23.961Z,4.7
2016-12-25T01:21:27.403Z,4.7
2016-12-25T01:22:30.841Z,4.7
2016-12-25T01:23:33.780Z,4.8
2016-12-25T01:24:37.222Z,4.8
2016-12-25T01:25:40.162Z,4.7
2016-12-25T01:26:43.611Z,4.7
2016-12-25T01:27:47.055Z,4.7
2016-12-25T01:28:49.997Z,4.7
2016-12-25T01:29:53.445Z,4.7
2016-12-25T01:30:56.389Z,4.7
2016-12-25T01:31:59.833Z,4.8
2016-12-25T01:33:03.276Z,4.7
2016-12-25T01:34:06.218Z,4.8
2016-12-25T01:35:09.671Z,4.8
2016-12-25T01:36:12.744Z,4.8
2016-12-25T01:37:16.193Z,4.8
2016-12-25T01:38:19.132Z,4.8
2016-12-25T01:39:22.586Z,4.8
2016-12-25T01:40:26.025Z,4.8
2016-12-25T01:41:28.969Z,4.8
2016-12-25T01:42:32.421Z,4.8
2016-12-25T01:43:35.362Z,4.8
2016-12-25T01:44:38.806Z,4.8
2016-12-25T01:45:42.244Z,4.8
2016-12-25T01:46:45.192Z,4.8
2016-12-25T01:47:48.636Z,4.8
2016-12-25T01:48:51.580Z,4.8
2016-12-25T01:49:55.026Z,4.8
2016-12-25T01:50:58.478Z,4.8
2016-12-25T01:52:01.419Z,4.8
2016-12-25T01:53:04.867Z,4.8
2016-12-25T01:54:07.810Z,4.8
2016-12-25T01:55:11.257Z,4.8
2016-12-25T01:56:14.702Z,4.8
2016-12-25T01:57:17.645Z,4.8
2016-12-25T01:58:21.094Z,4.8
2016-12-25T01:59:24.035Z,4.8
2016-12-25T02:00:27.479Z,4.8
2016-12-25T02:02:33.871Z,4.8
2016-12-25T02:03:37.317Z,4.8
2016-12-25T02:04:40.262Z,4.8
2016-12-25T02:05:43.708Z,4.8
2016-12-25T02:06:47.150Z,4.8
2016-12-25T02:07:50.095Z,4.8
2016-12-25T02:08:53.537Z,4.9
2016-12-25T02:09:56.480Z,4.9
2016-12-25T02:10:59.926Z,4.8
2016-12-25T02:12:03.375Z,4.9
2016-12-25T02:13:06.314Z,4.9
2016-12-25T02:14:09.755Z,4.9
2016-12-25T02:15:12.711Z,4.9
2016-12-25T02:16:16.154Z,4.9
2016-12-25T02:17:19.609Z,4.9
2016-12-25T02:18:22.556Z,4.9
2016-12-25T02:19:26.001Z,5
2016-12-25T02:20:28.942Z,4.9
2016-12-25T02:21:32.384Z,4.9
2016-12-25T02:22:35.828Z,4.9
2016-12-25T02:23:38.769Z,4.9
2016-12-25T02:24:42.247Z,4.9
2016-12-25T02:25:45.193Z,4.9
2016-12-25T02:26:48.632Z,5
2016-12-25T02:27:52.076Z,5
2016-12-25T02:28:55.019Z,5
2016-12-25T02:29:58.597Z,4.9
2016-12-25T02:31:01.542Z,4.9
2016-12-25T02:32:04.996Z,4.9
2016-12-25T02:33:07.942Z,4.9
2016-12-25T02:34:11.387Z,4.9
2016-12-25T02:35:14.836Z,4.9
2016-12-25T02:36:17.925Z,4.9
2016-12-25T02:37:21.374Z,4.9
2016-12-25T02:38:24.315Z,4.9
2016-12-25T02:39:27.762Z,4.9
2016-12-25T02:40:30.707Z,5
2016-12-25T02:41:34.151Z,4.9
2016-12-25T02:42:37.596Z,4.9
2016-12-25T02:43:40.535Z,5
2016-12-25T02:44:43.970Z,5
2016-12-25T02:45:47.412Z,5
2016-12-25T02:46:50.354Z,5
2016-12-25T02:47:53.799Z,5
2016-12-25T02:48:56.740Z,5
2016-12-25T02:50:00.183Z,5
2016-12-25T02:51:03.624Z,5
2016-12-25T02:52:06.574Z,5
2016-12-25T02:53:10.018Z,5
2016-12-25T02:54:13.464Z,5
2016-12-25T02:55:16.431Z,4.9
2016-12-25T02:56:19.880Z,5
2016-12-25T02:57:22.824Z,5
2016-12-25T02:58:26.275Z,5
2016-12-25T02:59:29.722Z,5
2016-12-25T03:00:32.666Z,5
2016-12-25T03:01:36.108Z,5
2016-12-25T03:02:39.055Z,5
2016-12-25T03:03:42.496Z,5
2016-12-25T03:04:45.956Z,5
2016-12-25T03:05:48.896Z,5
2016-12-25T03:06:52.341Z,5
2016-12-25T03:07:55.288Z,5
2016-12-25T03:08:58.867Z,5
2016-12-25T03:10:01.810Z,5
2016-12-25T03:11:05.289Z,5
2016-12-25T03:12:08.740Z,5
2016-12-25T03:13:11.745Z,5
2016-12-25T03:15:18.097Z,5
2016-12-25T03:16:21.538Z,5
2016-12-25T03:17:24.982Z,5
2016-12-25T03:18:27.924Z,5
2016-12-25T03:19:31.385Z,5
2016-12-25T03:20:34.329Z,5
2016-12-25T03:21:37.775Z,5
2016-12-25T03:22:41.220Z,5
2016-12-25T03:23:44.184Z,5
2016-12-25T03:24:47.625Z,5
2016-12-25T03:25:50.632Z,5
2016-12-25T03:26:54.080Z,5
2016-12-25T03:27:57.526Z,5
2016-12-25T03:29:00.466Z,5
2016-12-25T03:30:03.913Z,5
2016-12-25T03:31:06.860Z,5
2016-12-25T03:32:10.304Z,5
2016-12-25T03:33:13.749Z,5
2016-12-25T03:34:16.693Z,5.1
2016-12-25T03:35:20.141Z,5.1
2016-12-25T03:36:23.584Z,5.1
2016-12-25T03:37:26.527Z,5
2016-12-25T03:38:29.969Z,5
2016-12-25T03:39:32.912Z,5
2016-12-25T03:40:36.356Z,5
2016-12-25T03:41:39.804Z,5
2016-12-25T03:42:42.740Z,5
2016-12-25T03:43:46.183Z,5
2016-12-25T03:44:49.627Z,5
2016-12-25T03:45:52.567Z,5
2016-12-25T03:46:56.020Z,5
2016-12-25T03:47:58.962Z,5.1
2016-12-25T03:49:02.413Z,5.1
2016-12-25T03:50:05.853Z,5.1
2016-12-25T03:51:08.789Z,5.1
2016-12-25T03:52:12.236Z,5.1
2016-12-25T03:53:15.684Z,5.1
2016-12-25T03:54:18.627Z,5.1
2016-12-25T03:56:24.983Z,5.1
2016-12-25T03:57:28.426Z,5.1
2016-12-25T03:58:31.873Z,5.1
2016-12-25T03:59:34.818Z,5.1
2016-12-25T04:00:38.270Z,5.1
2016-12-25T04:01:41.720Z,5.1
2016-12-25T04:02:44.667Z,5.1
2016-12-25T04:03:48.113Z,5.1
2016-12-25T04:04:51.060Z,5.1
2016-12-25T04:05:54.561Z,5.1
2016-12-25T04:06:58.005Z,5.1
2016-12-25T04:08:00.954Z,5.1
2016-12-25T04:09:04.413Z,5.1
2016-12-25T04:10:07.353Z,5.1
2016-12-25T04:12:14.213Z,5.1
2016-12-25T04:13:17.157Z,5.1
2016-12-25T04:14:20.601Z,5.1
2016-12-25T04:16:27.112Z,5.1
2016-12-25T04:18:33.831Z,5.1
2016-12-25T04:19:36.770Z,5.1
2016-12-25T04:20:40.223Z,5.1
2016-12-25T04:21:43.172Z,5.1
2016-12-25T04:23:50.034Z,5.1
2016-12-25T04:24:53.014Z,5.1
2016-12-25T04:25:56.461Z,5.1
2016-12-25T04:26:59.404Z,5.1
2016-12-25T04:28:02.851Z,5.1
2016-12-25T04:29:06.299Z,5.1
2016-12-25T04:30:09.243Z,5.1
2016-12-25T04:32:16.105Z,5.1
2016-12-25T04:33:19.046Z,5.1
2016-12-25T04:34:22.490Z,5.1
2016-12-25T04:35:25.428Z,5.1
2016-12-25T04:36:28.872Z,5.1
2016-12-25T04:37:32.320Z,5.1
2016-12-25T04:38:35.273Z,5.1
2016-12-25T04:39:38.743Z,5.1
2016-12-25T04:40:42.189Z,5.1
2016-12-25T04:42:48.542Z,5.1
2016-12-25T04:43:51.484Z,5.1
2016-12-25T04:44:54.932Z,5.1
2016-12-25T04:45:58.374Z,5.1
2016-12-25T04:47:01.316Z,5.1
2016-12-25T04:48:04.763Z,5.1
2016-12-25T04:49:08.209Z,5.2
2016-12-25T04:50:11.152Z,5.2
2016-12-25T04:51:14.611Z,5.2
2016-12-25T04:52:17.555Z,5.2
2016-12-25T04:53:21.001Z,5.2
2016-12-25T04:54:24.443Z,5.2
2016-12-25T04:55:27.395Z,5.1
2016-12-25T04:57:34.253Z,5.1
2016-12-25T04:58:37.208Z,5.1
2016-12-25T04:59:40.650Z,5.2
2016-12-25T05:00:43.594Z,5.2
2016-12-25T05:01:47.040Z,5.2
2016-12-25T05:02:50.482Z,5.2
2016-12-25T05:03:53.565Z,5.2
2016-12-25T05:04:57.013Z,5.2
2016-12-25T05:05:59.962Z,5.2
2016-12-25T05:07:03.411Z,5.2
2016-12-25T05:08:06.363Z,5.2
2016-12-25T05:09:09.818Z,5.2
2016-12-25T05:10:13.267Z,5.2
2016-12-25T05:11:16.211Z,5.2
2016-12-25T05:12:19.970Z,5.2
2016-12-25T05:13:23.095Z,5.2
2016-12-25T05:14:26.037Z,5.2
2016-12-25T05:15:29.487Z,5.2
2016-12-25T05:16:32.429Z,5.2
2016-12-25T05:17:35.871Z,5.2
2016-12-25T05:18:39.313Z,5.2
2016-12-25T05:19:42.260Z,5.2
2016-12-25T05:20:45.712Z,5.3
2016-12-25T05:21:49.164Z,5.2
2016-12-25T05:23:39.393Z,5.2
2016-12-25T05:23:55.533Z,5.2
2016-12-25T05:24:58.487Z,5.2
2016-12-25T05:26:01.945Z,5.2
2016-12-25T05:27:05.397Z,5.2
2016-12-25T05:28:08.343Z,5.2
2016-12-25T05:29:11.796Z,5.2
2016-12-25T05:30:15.245Z,5.3
2016-12-25T05:31:18.335Z,5.3
2016-12-25T05:32:21.292Z,5.3
2016-12-25T05:33:24.746Z,5.3
2016-12-25T05:34:28.192Z,5.3
2016-12-25T05:35:31.140Z,5.3
2016-12-25T05:36:34.728Z,5.3
2016-12-25T05:37:37.748Z,5.3
2016-12-25T05:38:41.199Z,5.3
2016-12-25T05:39:44.153Z,5.3
2016-12-25T05:41:50.650Z,5.3
2016-12-25T05:42:54.098Z,5.3
2016-12-25T05:43:57.548Z,5.3
2016-12-25T05:45:00.492Z,5.3
2016-12-25T05:46:03.935Z,5.3
2016-12-25T05:47:07.386Z,5.2
2016-12-25T05:48:10.332Z,5.3
2016-12-25T05:49:13.783Z,5.2
2016-12-25T05:50:16.729Z,5.3
2016-12-25T05:51:20.251Z,5.3
2016-12-25T05:52:23.199Z,5.3
2016-12-25T05:54:30.060Z,5.3
2016-12-25T05:55:33.007Z,5.3
2016-12-25T05:56:36.462Z,5.3
2016-12-25T05:57:39.911Z,5.3
2016-12-25T05:58:42.886Z,5.3
2016-12-25T05:59:46.337Z,5.3
2016-12-25T06:00:49.291Z,5.3
2016-12-25T06:01:52.741Z,5.3
2016-12-25T06:02:56.198Z,5.3
2016-12-25T06:03:59.141Z,5.3
2016-12-25T06:05:02.598Z,5.3
2016-12-25T06:06:06.190Z,5.3
2016-12-25T06:08:12.584Z,5.3
2016-12-25T06:09:15.528Z,5.3
2016-12-25T06:10:18.976Z,5.3
2016-12-25T06:11:21.922Z,5.3
2016-12-25T06:13:28.783Z,5.3
2016-12-25T06:14:31.727Z,5.3
2016-12-25T06:15:35.179Z,5.3
2016-12-25T06:16:38.645Z,5.3
2016-12-25T06:17:41.593Z,5.3
2016-12-25T06:18:45.036Z,5.3
2016-12-25T06:19:47.981Z,5.3
2016-12-25T06:20:51.432Z,5.3
2016-12-25T06:21:54.885Z,5.3
2016-12-25T06:22:57.982Z,5.3
2016-12-25T06:24:01.430Z,5.3
2016-12-25T06:25:04.378Z,5.3
2016-12-25T06:26:07.824Z,5.3
2016-12-25T06:27:11.268Z,5.3
2016-12-25T06:28:14.218Z,5.4
2016-12-25T06:29:17.671Z,5.3
2016-12-25T06:30:20.614Z,5.4
2016-12-25T06:31:24.068Z,5.4
2016-12-25T06:33:30.455Z,5.4
2016-12-25T06:34:33.904Z,5.3
2016-12-25T06:35:37.362Z,5.4
2016-12-25T06:36:40.309Z,5.4
2016-12-25T06:37:43.758Z,5.4
2016-12-25T06:38:46.705Z,5.4
2016-12-25T06:39:50.159Z,5.4
2016-12-25T06:40:53.614Z,5.4
2016-12-25T06:41:56.630Z,5.4
2016-12-25T06:43:00.078Z,5.5
2016-12-25T06:44:03.026Z,5.5
2016-12-25T06:45:06.480Z,5.4
2016-12-25T06:46:09.927Z,5.4
2016-12-25T06:47:12.878Z,5.4
2016-12-25T06:48:16.341Z,5.4
2016-12-25T06:49:19.283Z,5.4
2016-12-25T06:50:22.728Z,5.4
2016-12-25T06:51:26.172Z,5.5
2016-12-25T06:52:29.118Z,5.5
2016-12-25T06:53:32.573Z,5.5
2016-12-25T06:55:38.937Z,5.5
2016-12-25T06:56:42.383Z,5.5
2016-12-25T06:57:45.832Z,5.5
2016-12-25T06:58:48.781Z,5.4
2016-12-25T06:59:52.230Z,5.4
2016-12-25T07:00:55.175Z,5.4
2016-12-25T07:01:58.640Z,5.5
2016-12-25T07:03:02.095Z,5.5
2016-12-25T07:04:05.044Z,5.5
2016-12-25T07:06:11.916Z,5.5
2016-12-25T07:07:15.001Z,5.5
2016-12-25T07:09:21.362Z,5.5
2016-12-25T07:10:24.813Z,5.5
2016-12-25T07:11:28.262Z,5.5
2016-12-25T07:12:31.208Z,5.5
2016-12-25T07:13:34.720Z,5.5
2016-12-25T07:14:37.676Z,5.5
2016-12-25T07:15:41.126Z,5.5
2016-12-25T07:16:44.571Z,5.5
2016-12-25T07:17:47.513Z,5.5
2016-12-25T07:18:50.964Z,5.5
2016-12-25T07:19:53.915Z,5.5
2016-12-25T07:20:57.367Z,5.5
2016-12-25T07:22:00.816Z,5.5
2016-12-25T07:23:03.771Z,5.5
2016-12-25T07:24:07.228Z,5.5
2016-12-25T07:25:10.681Z,5.5
2016-12-25T07:26:13.626Z,5.5
2016-12-25T07:27:17.074Z,5.5
2016-12-25T07:28:20.527Z,5.6
2016-12-25T07:29:23.480Z,5.6
2016-12-25T07:30:26.929Z,5.6
2016-12-25T07:31:29.880Z,5.6
2016-12-25T07:32:33.331Z,5.5
2016-12-25T07:33:36.784Z,5.5
2016-12-25T07:34:39.737Z,5.6
2016-12-25T07:35:43.251Z,5.6
2016-12-25T07:36:46.201Z,5.5
2016-12-25T07:37:49.647Z,5.5
2016-12-25T07:38:53.120Z,5.5
2016-12-25T07:39:56.062Z,5.5
2016-12-25T07:40:59.516Z,5.5
2016-12-25T07:42:02.967Z,5.5
2016-12-25T07:43:05.913Z,5.5
2016-12-25T07:44:09.370Z,5.5
2016-12-25T07:45:12.318Z,5.5
2016-12-25T07:46:15.762Z,5.5
2016-12-25T07:47:19.210Z,5.5
2016-12-25T07:48:22.157Z,5.6
2016-12-25T07:49:25.617Z,5.6
2016-12-25T07:50:29.068Z,5.6
2016-12-25T07:51:32.018Z,5.6
2016-12-25T07:52:35.467Z,5.6
2016-12-25T07:53:38.409Z,5.6
2016-12-25T07:54:41.856Z,5.6
2016-12-25T07:55:45.310Z,5.6
2016-12-25T07:56:48.262Z,5.6
2016-12-25T07:57:51.716Z,5.6
2016-12-25T07:58:55.166Z,5.6
2016-12-25T07:59:58.117Z,5.6
2016-12-25T08:01:01.570Z,5.6
2016-12-25T08:02:05.025Z,5.6
2016-12-25T08:03:07.972Z,5.6
2016-12-25T08:04:11.425Z,5.6
2016-12-25T08:05:14.371Z,5.6
2016-12-25T08:06:17.824Z,5.6
2016-12-25T08:07:21.277Z,5.6
2016-12-25T08:08:24.229Z,5.6
2016-12-25T08:09:27.684Z,5.6
2016-12-25T08:10:31.132Z,5.6
2016-12-25T08:11:34.075Z,5.6
2016-12-25T08:12:37.532Z,5.6
2016-12-25T08:14:43.893Z,5.6
2016-12-25T08:15:47.345Z,5.6
2016-12-25T08:16:50.295Z,5.6
2016-12-25T08:17:53.746Z,5.6
2016-12-25T08:18:57.204Z,5.6
2016-12-25T08:20:00.154Z,5.6
2016-12-25T08:21:03.604Z,5.6
2016-12-25T08:22:07.057Z,5.6
2016-12-25T08:23:10.007Z,5.6
2016-12-25T08:24:13.456Z,5.6
2016-12-25T08:25:16.905Z,5.7
2016-12-25T08:26:19.860Z,5.7
2016-12-25T08:27:23.307Z,5.8
2016-12-25T08:28:26.255Z,5.7
2016-12-25T08:29:29.709Z,5.7
2016-12-25T08:31:36.124Z,5.7
2016-12-25T08:32:39.535Z,5.7
2016-12-25T08:33:42.985Z,5.7
2016-12-25T08:34:45.932Z,5.7
2016-12-25T08:35:49.382Z,5.7
2016-12-25T08:36:52.394Z,5.7
2016-12-25T08:37:55.877Z,5.8
2016-12-25T08:38:59.328Z,5.8
2016-12-25T08:40:02.281Z,5.8
2016-12-25T08:41:05.732Z,5.8
2016-12-25T08:42:09.181Z,5.8
2016-12-25T08:43:12.262Z,5.8
2016-12-25T08:44:15.713Z,5.8
2016-12-25T08:45:18.669Z,5.8
2016-12-25T08:46:22.122Z,5.8
2016-12-25T08:47:25.070Z,5.8
2016-12-25T08:48:28.519Z,5.8
2016-12-25T08:49:31.970Z,5.8
2016-12-25T08:50:34.927Z,5.8
2016-12-25T08:51:38.380Z,5.8
2016-12-25T08:52:41.826Z,5.8
2016-12-25T08:53:44.771Z,5.8
2016-12-25T08:54:48.224Z,5.9
2016-12-25T08:55:51.679Z,5.8
2016-12-25T08:56:54.627Z,5.8
2016-12-25T08:57:58.081Z,5.8
2016-12-25T08:59:01.533Z,5.8
2016-12-25T09:00:04.478Z,5.8
2016-12-25T09:01:07.930Z,5.8
2016-12-25T09:02:10.884Z,5.8
2016-12-25T09:03:14.335Z,5.8
2016-12-25T09:04:17.415Z,5.8
2016-12-25T09:05:20.872Z,5.8
2016-12-25T09:06:24.329Z,5.8
2016-12-25T09:07:27.273Z,5.8
2016-12-25T09:08:30.731Z,5.8
2016-12-25T09:09:34.185Z,5.8
2016-12-25T09:10:37.135Z,5.8
2016-12-25T09:11:40.585Z,5.8
2016-12-25T09:12:44.033Z,5.8
2016-12-25T09:13:46.980Z,5.8
2016-12-25T09:14:50.456Z,5.8
2016-12-25T09:15:53.407Z,5.8
2016-12-25T09:16:56.864Z,5.8
2016-12-25T09:18:00.326Z,5.8
2016-12-25T09:19:03.301Z,5.8
2016-12-25T09:20:06.753Z,5.8
2016-12-25T09:21:10.206Z,5.8
2016-12-25T09:22:13.156Z,5.8
2016-12-25T09:23:16.605Z,5.8
2016-12-25T09:24:19.554Z,5.8
2016-12-25T09:25:23.003Z,5.8
2016-12-25T09:26:26.455Z,5.8
2016-12-25T09:27:29.402Z,5.8
2016-12-25T09:28:32.852Z,5.8
2016-12-25T09:29:36.298Z,5.8
2016-12-25T09:30:39.249Z,5.8
2016-12-25T09:31:42.702Z,5.8
2016-12-25T09:32:46.150Z,5.8
2016-12-25T09:33:49.097Z,5.8
2016-12-25T09:34:52.548Z,5.8
2016-12-25T09:35:55.999Z,5.8
2016-12-25T09:36:58.943Z,5.8
2016-12-25T09:38:02.394Z,5.8
2016-12-25T09:39:05.340Z,5.8
2016-12-25T09:40:08.804Z,5.8
2016-12-25T09:41:12.256Z,5.8
2016-12-25T09:42:15.203Z,5.8
2016-12-25T09:43:18.656Z,5.8
2016-12-25T09:44:22.109Z,5.8
2016-12-25T09:45:25.057Z,5.8
2016-12-25T09:46:28.507Z,5.8
2016-12-25T09:47:31.960Z,5.8
2016-12-25T09:48:34.915Z,5.8
2016-12-25T09:49:38.367Z,5.8
2016-12-25T09:50:41.312Z,5.8
2016-12-25T09:51:44.762Z,5.8
2016-12-25T09:52:48.210Z,5.8
2016-12-25T09:53:51.158Z,5.8
2016-12-25T09:54:54.606Z,5.8
2016-12-25T09:55:58.056Z,5.8
2016-12-25T09:57:01.000Z,5.8
2016-12-25T09:58:04.451Z,5.8
2016-12-25T09:59:07.905Z,5.9
2016-12-25T10:00:10.856Z,5.9
2016-12-25T10:01:14.312Z,5.8
2016-12-25T10:02:17.260Z,5.8
2016-12-25T10:04:24.118Z,5.8
2016-12-25T10:05:27.570Z,5.8
2016-12-25T10:06:30.523Z,5.8
2016-12-25T10:07:33.974Z,5.8
2016-12-25T10:08:36.923Z,5.8
2016-12-25T10:09:40.375Z,5.8
2016-12-25T10:10:43.819Z,5.8
2016-12-25T10:11:46.765Z,5.8
2016-12-25T10:12:50.211Z,5.9
2016-12-25T10:13:53.664Z,5.9
2016-12-25T10:14:56.611Z,5.9
2016-12-25T10:16:00.069Z,5.9
2016-12-25T10:17:03.519Z,5.9
2016-12-25T10:18:06.559Z,5.9
2016-12-25T10:19:10.015Z,5.9
2016-12-25T10:20:12.974Z,5.9
2016-12-25T10:21:16.443Z,5.9
2016-12-25T10:22:19.895Z,5.9
2016-12-25T10:23:22.848Z,5.9
2016-12-25T10:24:26.301Z,5.9
2016-12-25T10:25:29.245Z,5.9
2016-12-25T10:26:32.696Z,5.9
2016-12-25T10:27:36.149Z,5.9
2016-12-25T10:28:39.098Z,5.9
2016-12-25T10:29:42.545Z,5.9
2016-12-25T10:30:46.005Z,5.8
2016-12-25T10:31:48.952Z,5.8
2016-12-25T10:32:52.407Z,5.9
2016-12-25T10:33:55.858Z,5.9
2016-12-25T10:34:58.835Z,5.8
2016-12-25T10:36:01.914Z,5.9
2016-12-25T10:37:05.368Z,5.9
2016-12-25T10:38:08.815Z,5.9
2016-12-25T10:39:11.767Z,5.9
2016-12-25T10:40:15.221Z,5.9
2016-12-25T10:41:18.674Z,5.9
2016-12-25T10:42:21.663Z,5.9
2016-12-25T10:43:25.260Z,5.9
2016-12-25T10:44:28.208Z,5.9
2016-12-25T10:45:31.658Z,5.9
2016-12-25T10:46:34.604Z,5.9
2016-12-25T10:47:38.061Z,5.9
2016-12-25T10:48:41.510Z,5.9
2016-12-25T10:49:44.451Z,5.9
2016-12-25T10:50:47.903Z,5.9
2016-12-25T10:51:51.355Z,5.9
2016-12-25T10:52:54.329Z,5.9
2016-12-25T10:53:57.785Z,5.9
2016-12-25T10:55:01.238Z,5.9
2016-12-25T10:56:04.192Z,5.9
2016-12-25T10:59:13.963Z,6
2016-12-25T11:00:17.413Z,6
2016-12-25T11:01:20.864Z,6
2016-12-25T11:02:23.809Z,6
2016-12-25T11:03:27.259Z,6
2016-12-25T11:04:30.208Z,6
2016-12-25T11:05:33.664Z,6
2016-12-25T11:06:37.116Z,6
2016-12-25T11:07:40.068Z,6
2016-12-25T11:08:43.525Z,6
2016-12-25T11:09:46.975Z,6
2016-12-25T11:10:49.920Z,6
2016-12-25T11:11:53.369Z,6
2016-12-25T11:12:56.819Z,6
2016-12-25T11:13:59.781Z,6
2016-12-25T11:15:03.233Z,6
2016-12-25T11:16:06.182Z,6
2016-12-25T11:17:09.632Z,6
2016-12-25T11:18:13.080Z,6
2016-12-25T11:19:16.026Z,6
2016-12-25T11:20:19.471Z,6
2016-12-25T11:21:22.925Z,6
2016-12-25T11:22:25.871Z,6
2016-12-25T11:23:29.322Z,6
2016-12-25T11:24:32.778Z,6
2016-12-25T11:25:35.727Z,6
2016-12-25T11:26:39.179Z,6
2016-12-25T11:27:42.630Z,6.1
2016-12-25T11:28:45.572Z,6.1
2016-12-25T11:29:49.027Z,6.1
2016-12-25T11:30:52.474Z,6.1
2016-12-25T11:31:55.418Z,6.1
2016-12-25T11:32:58.880Z,6.1
2016-12-25T11:34:01.833Z,6.1
2016-12-25T11:35:05.285Z,6.1
2016-12-25T11:36:08.735Z,6.1
2016-12-25T11:37:11.677Z,6.1
2016-12-25T11:38:15.129Z,6.1
2016-12-25T11:39:18.581Z,6.1
2016-12-25T11:40:21.527Z,6.1
2016-12-25T11:41:24.977Z,6.2
2016-12-25T11:42:28.433Z,6.2
2016-12-25T11:43:31.385Z,6.2
2016-12-25T11:44:34.837Z,6.2
2016-12-25T11:45:38.286Z,6.2
2016-12-25T11:46:41.232Z,6.2
2016-12-25T11:47:44.681Z,6.2
2016-12-25T11:48:48.137Z,6.3
2016-12-25T11:49:51.113Z,6.3
2016-12-25T11:50:54.561Z,6.2
2016-12-25T11:51:57.512Z,6.3
2016-12-25T11:53:00.955Z,6.3
2016-12-25T11:54:04.408Z,6.3
2016-12-25T11:55:07.355Z,6.3
2016-12-25T11:56:10.805Z,6.3
2016-12-25T11:57:14.256Z,6.3
2016-12-25T11:58:17.200Z,6.3
2016-12-25T11:59:20.654Z,6.3
2016-12-25T12:00:24.107Z,6.3
2016-12-25T12:01:27.055Z,6.3
2016-12-25T12:02:30.509Z,6.4
2016-12-25T12:03:33.957Z,6.3
2016-12-25T12:04:36.906Z,6.3
2016-12-25T12:05:40.363Z,6.3
2016-12-25T12:06:43.812Z,6.3
2016-12-25T12:07:46.762Z,6.3
2016-12-25T12:08:50.213Z,6.3
2016-12-25T12:09:53.664Z,6.3
2016-12-25T12:10:56.611Z,6.3
2016-12-25T12:12:00.059Z,6.4
2016-12-25T12:13:03.512Z,6.4
2016-12-25T12:15:09.868Z,6.4
2016-12-25T12:16:13.317Z,6.4
2016-12-25T12:17:16.408Z,6.4
2016-12-25T12:18:19.868Z,6.4
2016-12-25T12:19:22.813Z,6.4
2016-12-25T12:20:26.291Z,6.5
2016-12-25T12:21:29.750Z,6.5
2016-12-25T12:22:32.698Z,6.5
2016-12-25T12:23:36.148Z,6.5
2016-12-25T12:24:39.599Z,6.5
2016-12-25T12:25:42.547Z,6.5
2016-12-25T12:27:49.407Z,6.5
2016-12-25T12:28:52.361Z,6.5
2016-12-25T12:29:55.817Z,6.5
2016-12-25T12:30:59.273Z,6.5
2016-12-25T12:32:02.221Z,6.5
2016-12-25T12:33:05.677Z,6.5
2016-12-25T12:34:09.131Z,6.5
2016-12-25T12:35:12.080Z,6.5
2016-12-25T12:36:15.530Z,6.5
2016-12-25T12:37:18.984Z,6.5
2016-12-25T12:38:21.938Z,6.5
2016-12-25T12:39:25.391Z,6.5
2016-12-25T12:40:28.849Z,6.5
2016-12-25T12:41:31.805Z,6.5
2016-12-25T12:42:35.256Z,6.5
2016-12-25T12:43:38.709Z,6.5
2016-12-25T12:44:41.661Z,6.5
2016-12-25T12:45:45.108Z,6.5
2016-12-25T12:46:48.560Z,6.5
2016-12-25T12:47:51.510Z,6.6
2016-12-25T12:48:55.098Z,6.6
2016-12-25T12:49:58.046Z,6.5
2016-12-25T12:51:01.506Z,6.5
2016-12-25T12:52:04.961Z,6.5
2016-12-25T12:53:07.905Z,6.5
2016-12-25T12:54:11.359Z,6.5
2016-12-25T12:55:14.809Z,6.5
2016-12-25T12:56:17.758Z,6.5
2016-12-25T12:57:21.214Z,6.5
2016-12-25T12:58:24.666Z,6.6
2016-12-25T12:59:27.612Z,6.6
2016-12-25T13:00:31.058Z,6.6
2016-12-25T13:02:37.927Z,6.6
2016-12-25T13:03:40.876Z,6.6
2016-12-25T13:04:44.327Z,6.6
2016-12-25T13:05:47.786Z,6.6
2016-12-25T13:06:50.737Z,6.6
2016-12-25T13:07:54.183Z,6.6
2016-12-25T13:08:57.636Z,6.6
2016-12-25T13:10:00.720Z,6.6
2016-12-25T13:11:04.169Z,6.6
2016-12-25T13:12:07.112Z,6.6
2016-12-25T13:13:10.567Z,6.6
2016-12-25T13:14:14.013Z,6.6
2016-12-25T13:15:16.961Z,6.6
2016-12-25T13:16:20.415Z,6.6
2016-12-25T13:17:23.876Z,6.6
2016-12-25T13:18:26.822Z,6.6
2016-12-25T13:20:33.687Z,6.6
2016-12-25T13:22:40.049Z,6.6
2016-12-25T13:23:43.501Z,6.6
2016-12-25T13:24:46.948Z,6.6
2016-12-25T13:25:49.894Z,6.6
2016-12-25T13:26:53.349Z,6.6
2016-12-25T13:27:56.798Z,6.7
2016-12-25T13:28:59.739Z,6.7
2016-12-25T13:30:03.190Z,6.7
2016-12-25T13:31:06.259Z,6.7
2016-12-25T13:32:09.710Z,6.7
2016-12-25T13:33:13.159Z,6.7
2016-12-25T13:34:16.102Z,6.8
2016-12-25T13:35:19.559Z,6.8
2016-12-25T13:36:23.146Z,6.8
2016-12-25T13:37:26.095Z,6.8
2016-12-25T13:38:29.549Z,6.8
2016-12-25T13:39:33.002Z,6.8
2016-12-25T13:40:35.948Z,6.8
2016-12-25T13:41:39.398Z,6.8
2016-12-25T13:42:42.853Z,6.8
2016-12-25T13:43:45.799Z,6.8
2016-12-25T13:44:49.247Z,6.8
2016-12-25T13:45:52.696Z,6.8
2016-12-25T13:46:55.640Z,6.8
2016-12-25T13:47:59.098Z,6.8
2016-12-25T13:49:02.546Z,6.8
2016-12-25T13:50:05.494Z,6.8
2016-12-25T13:51:08.946Z,6.8
2016-12-25T13:52:12.534Z,6.8
2016-12-25T13:53:15.481Z,6.8
2016-12-25T13:54:18.932Z,6.8
2016-12-25T13:55:21.881Z,6.8
2016-12-25T13:56:25.333Z,6.8
2016-12-25T13:57:28.787Z,6.8
2016-12-25T13:58:32.243Z,6.8
2016-12-25T13:59:35.191Z,6.8
2016-12-25T14:00:38.642Z,6.8
2016-12-25T14:02:45.005Z,6.8
2016-12-25T14:04:51.880Z,6.9
2016-12-25T14:05:54.828Z,6.9
2016-12-25T14:06:58.276Z,6.9
2016-12-25T14:08:01.731Z,6.9
2016-12-25T14:09:04.677Z,6.9
2016-12-25T14:10:08.133Z,6.9
2016-12-25T14:11:11.588Z,6.8
2016-12-25T14:12:14.666Z,6.8
2016-12-25T14:13:18.116Z,6.9
2016-12-25T14:14:21.567Z,6.9
2016-12-25T14:15:24.516Z,6.9
2016-12-25T14:16:27.967Z,6.9
2016-12-25T14:17:31.425Z,6.9
2016-12-25T14:18:34.373Z,6.9
2016-12-25T14:19:37.829Z,6.9
2016-12-25T14:20:41.279Z,6.9
2016-12-25T14:21:44.226Z,6.9
2016-12-25T14:23:51.087Z,6.8
2016-12-25T14:24:54.044Z,6.8
2016-12-25T14:25:57.499Z,6.9
2016-12-25T14:27:00.956Z,6.9
2016-12-25T14:28:03.906Z,6.9
2016-12-25T14:30:10.770Z,6.9
2016-12-25T14:31:14.231Z,6.8
2016-12-25T14:32:17.185Z,6.8
2016-12-25T14:33:20.639Z,6.8
2016-12-25T14:34:24.120Z,6.8
2016-12-25T14:35:27.071Z,6.8
2016-12-25T14:36:30.526Z,6.8
2016-12-25T14:37:33.588Z,6.8
2016-12-25T14:38:37.040Z,6.8
2016-12-25T14:39:40.495Z,6.8
2016-12-25T14:40:43.447Z,6.8
2016-12-25T14:41:46.899Z,6.8
2016-12-25T14:42:50.348Z,6.8
2016-12-25T14:43:53.292Z,6.9
2016-12-25T14:44:56.743Z,6.9
2016-12-25T14:46:00.193Z,6.9
2016-12-25T14:47:03.142Z,6.8
2016-12-25T14:48:06.588Z,6.9
2016-12-25T14:49:10.040Z,6.9
2016-12-25T14:50:13.495Z,6.8
2016-12-25T14:51:16.447Z,6.8
2016-12-25T14:53:23.322Z,6.8
2016-12-25T14:54:26.273Z,6.8
2016-12-25T14:55:29.729Z,6.8
2016-12-25T14:56:33.181Z,6.8
2016-12-25T14:57:36.126Z,6.9
2016-12-25T14:58:39.575Z,6.9
2016-12-25T14:59:43.032Z,6.9
2016-12-25T15:00:45.983Z,6.9
2016-12-25T15:01:49.434Z,6.9
2016-12-25T15:02:52.884Z,6.9
2016-12-25T15:03:55.831Z,6.9
2016-12-25T15:04:59.283Z,6.9
2016-12-25T15:06:02.741Z,6.9
2016-12-25T15:07:05.684Z,6.9
2016-12-25T15:08:09.138Z,6.9
2016-12-25T15:09:12.588Z,6.9
2016-12-25T15:10:15.544Z,6.9
2016-12-25T15:11:18.997Z,6.9
2016-12-25T15:12:22.452Z,6.9
2016-12-25T15:13:25.406Z,6.9
2016-12-25T15:14:28.859Z,6.9
2016-12-25T15:15:32.306Z,6.9
2016-12-25T15:16:35.770Z,6.8